Terminal Aerodrome Forecast
Issued by NWS

Home | Current Version | Previous Version | Graphics & Text | Print | Product List | Glossary On
Versions: 1 2 3 4 5 6 7 8 9 10 11 12 13 14 15 16 17 18 19 20 21 22 23
000
FTUS43 KMPX 241900 AAA
TAFRWF
TAF AMD
KRWF 241914Z 2419/2518 33021G35KT 2SM -SN BKN016 OVC030
     FM242300 32016G24KT P6SM OVC024
     FM250100 32016G25KT P6SM SCT025
     FM251000 28006KT P6SM SCT100
     FM251600 24007KT P6SM BKN040=

USA.gov is the U.S. government's official web portal to all federal, state and local government web resources and services.